sensor_id;sensor_type;location;lat;lon;timestamp;temperature;humidity
13458;DHT22;6801;53.018;11.560;2022-11-23T00:02:19;2.70;83.20
13458;DHT22;6801;53.018;11.560;2022-11-23T00:04:46;2.70;83.20
13458;DHT22;6801;53.018;11.560;2022-11-23T00:07:13;2.70;83.30
13458;DHT22;6801;53.018;11.560;2022-11-23T00:09:40;2.70;83.40
13458;DHT22;6801;53.018;11.560;2022-11-23T00:12:08;2.70;83.30
13458;DHT22;6801;53.018;11.560;2022-11-23T00:14:35;2.70;83.40
13458;DHT22;6801;53.018;11.560;2022-11-23T00:17:03;2.70;83.30
13458;DHT22;6801;53.018;11.560;2022-11-23T00:19:31;2.70;83.30
13458;DHT22;6801;53.018;11.560;2022-11-23T00:21:58;2.70;83.40
13458;DHT22;6801;53.018;11.560;2022-11-23T00:24:25;2.70;83.30
13458;DHT22;6801;53.018;11.560;2022-11-23T00:26:52;2.70;83.30
13458;DHT22;6801;53.018;11.560;2022-11-23T00:29:19;2.80;83.20
13458;DHT22;6801;53.018;11.560;2022-11-23T00:31:46;2.70;83.10
13458;DHT22;6801;53.018;11.560;2022-11-23T00:34:15;2.70;83.20
13458;DHT22;6801;53.018;11.560;2022-11-23T00:36:42;2.80;83.20
13458;DHT22;6801;53.018;11.560;2022-11-23T00:39:09;2.80;83.30
13458;DHT22;6801;53.018;11.560;2022-11-23T00:41:36;2.80;83.40
13458;DHT22;6801;53.018;11.560;2022-11-23T00:44:03;2.80;83.40
13458;DHT22;6801;53.018;11.560;2022-11-23T00:46:30;2.80;83.20
13458;DHT22;6801;53.018;11.560;2022-11-23T00:48:57;2.80;83.40
13458;DHT22;6801;53.018;11.560;2022-11-23T00:51:28;2.80;83.30
13458;DHT22;6801;53.018;11.560;2022-11-23T00:53:56;2.80;83.30
13458;DHT22;6801;53.018;11.560;2022-11-23T00:56:25;2.80;83.40
13458;DHT22;6801;53.018;11.560;2022-11-23T00:58:53;2.80;83.30
13458;DHT22;6801;53.018;11.560;2022-11-23T01:01:22;2.80;83.40
13458;DHT22;6801;53.018;11.560;2022-11-23T01:03:52;2.80;83.30
13458;DHT22;6801;53.018;11.560;2022-11-23T01:06:21;2.80;83.20
13458;DHT22;6801;53.018;11.560;2022-11-23T01:08:52;2.80;83.20
13458;DHT22;6801;53.018;11.560;2022-11-23T01:11:21;2.80;83.30
13458;DHT22;6801;53.018;11.560;2022-11-23T01:13:49;2.80;83.20
13458;DHT22;6801;53.018;11.560;2022-11-23T01:16:18;2.80;83.30
13458;DHT22;6801;53.018;11.560;2022-11-23T01:18:45;2.90;83.20
13458;DHT22;6801;53.018;11.560;2022-11-23T01:21:12;2.90;83.20
13458;DHT22;6801;53.018;11.560;2022-11-23T01:23:39;2.80;83.30
13458;DHT22;6801;53.018;11.560;2022-11-23T01:26:10;2.90;83.20
13458;DHT22;6801;53.018;11.560;2022-11-23T01:28:39;2.80;83.20
13458;DHT22;6801;53.018;11.560;2022-11-23T01:31:07;2.80;83.30
13458;DHT22;6801;53.018;11.560;2022-11-23T01:33:35;2.80;83.40
13458;DHT22;6801;53.018;11.560;2022-11-23T01:36:08;2.90;83.40
13458;DHT22;6801;53.018;11.560;2022-11-23T01:38:35;2.80;83.40
13458;DHT22;6801;53.018;11.560;2022-11-23T01:41:03;2.80;83.40
13458;DHT22;6801;53.018;11.560;2022-11-23T01:43:32;2.80;83.50
13458;DHT22;6801;53.018;11.560;2022-11-23T01:46:01;2.80;83.50
13458;DHT22;6801;53.018;11.560;2022-11-23T01:48:31;2.90;83.40
13458;DHT22;6801;53.018;11.560;2022-11-23T01:51:03;2.80;83.40
13458;DHT22;6801;53.018;11.560;2022-11-23T01:53:32;2.90;83.50
13458;DHT22;6801;53.018;11.560;2022-11-23T01:56:00;2.90;83.50
13458;DHT22;6801;53.018;11.560;2022-11-23T01:58:32;2.90;83.40
13458;DHT22;6801;53.018;11.560;2022-11-23T02:01:00;2.90;83.50
13458;DHT22;6801;53.018;11.560;2022-11-23T02:03:28;3.00;83.30
13458;DHT22;6801;53.018;11.560;2022-11-23T02:06:00;2.90;83.30
13458;DHT22;6801;53.018;11.560;2022-11-23T02:08:28;3.00;83.20
13458;DHT22;6801;53.018;11.560;2022-11-23T02:10:56;3.00;83.20
13458;DHT22;6801;53.018;11.560;2022-11-23T02:13:24;2.90;83.30
13458;DHT22;6801;53.018;11.560;2022-11-23T02:15:54;2.90;83.40
13458;DHT22;6801;53.018;11.560;2022-11-23T02:18:23;2.90;83.50
13458;DHT22;6801;53.018;11.560;2022-11-23T02:20:52;2.90;83.60
13458;DHT22;6801;53.018;11.560;2022-11-23T02:23:28;2.90;83.60
13458;DHT22;6801;53.018;11.560;2022-11-23T02:26:06;2.90;83.60
13458;DHT22;6801;53.018;11.560;2022-11-23T02:28:36;2.90;83.60
13458;DHT22;6801;53.018;11.560;2022-11-23T02:31:05;3.00;83.50
13458;DHT22;6801;53.018;11.560;2022-11-23T02:33:32;3.00;83.40
13458;DHT22;6801;53.018;11.560;2022-11-23T02:36:00;3.00;83.50
13458;DHT22;6801;53.018;11.560;2022-11-23T02:38:30;3.00;83.60
13458;DHT22;6801;53.018;11.560;2022-11-23T02:40:59;2.90;83.50
13458;DHT22;6801;53.018;11.560;2022-11-23T02:43:27;2.90;83.60
13458;DHT22;6801;53.018;11.560;2022-11-23T02:45:56;3.00;83.60
13458;DHT22;6801;53.018;11.560;2022-11-23T02:48:24;3.00;83.50
13458;DHT22;6801;53.018;11.560;2022-11-23T02:50:51;3.00;83.60
13458;DHT22;6801;53.018;11.560;2022-11-23T02:53:18;3.00;83.50
13458;DHT22;6801;53.018;11.560;2022-11-23T02:55:45;3.00;83.50
13458;DHT22;6801;53.018;11.560;2022-11-23T02:58:12;3.00;83.70
13458;DHT22;6801;53.018;11.560;2022-11-23T03:00:42;3.00;83.70
13458;DHT22;6801;53.018;11.560;2022-11-23T03:03:09;3.00;83.80
13458;DHT22;6801;53.018;11.560;2022-11-23T03:05:36;3.00;83.80
13458;DHT22;6801;53.018;11.560;2022-11-23T03:08:05;3.00;83.70
13458;DHT22;6801;53.018;11.560;2022-11-23T03:10:33;3.00;83.70
13458;DHT22;6801;53.018;11.560;2022-11-23T03:13:00;3.00;83.70
13458;DHT22;6801;53.018;11.560;2022-11-23T03:15:31;3.00;83.60
13458;DHT22;6801;53.018;11.560;2022-11-23T03:18:00;3.00;83.70
13458;DHT22;6801;53.018;11.560;2022-11-23T03:20:28;3.00;83.60
13458;DHT22;6801;53.018;11.560;2022-11-23T03:22:55;3.00;83.70
13458;DHT22;6801;53.018;11.560;2022-11-23T03:25:23;3.00;83.70
13458;DHT22;6801;53.018;11.560;2022-11-23T03:27:53;3.10;83.70
13458;DHT22;6801;53.018;11.560;2022-11-23T03:30:20;3.00;83.60
13458;DHT22;6801;53.018;11.560;2022-11-23T03:32:48;3.10;83.40
13458;DHT22;6801;53.018;11.560;2022-11-23T03:35:18;3.10;83.40
13458;DHT22;6801;53.018;11.560;2022-11-23T03:38:03;3.10;83.50
13458;DHT22;6801;53.018;11.560;2022-11-23T03:40:31;3.10;83.60
13458;DHT22;6801;53.018;11.560;2022-11-23T03:43:18;3.10;83.70
13458;DHT22;6801;53.018;11.560;2022-11-23T03:45:46;3.10;83.80
13458;DHT22;6801;53.018;11.560;2022-11-23T03:48:14;3.10;83.70
13458;DHT22;6801;53.018;11.560;2022-11-23T03:50:43;3.10;83.70
13458;DHT22;6801;53.018;11.560;2022-11-23T03:53:11;3.10;83.70
13458;DHT22;6801;53.018;11.560;2022-11-23T03:55:38;3.10;83.70
13458;DHT22;6801;53.018;11.560;2022-11-23T03:58:05;3.10;83.70
13458;DHT22;6801;53.018;11.560;2022-11-23T04:00:34;3.10;83.80
13458;DHT22;6801;53.018;11.560;2022-11-23T04:03:02;3.10;83.80
13458;DHT22;6801;53.018;11.560;2022-11-23T04:05:49;3.10;83.90
13458;DHT22;6801;53.018;11.560;2022-11-23T04:08:36;3.10;83.80
13458;DHT22;6801;53.018;11.560;2022-11-23T04:11:08;3.10;83.80
13458;DHT22;6801;53.018;11.560;2022-11-23T04:13:37;3.10;83.70
13458;DHT22;6801;53.018;11.560;2022-11-23T04:16:05;3.10;83.80
13458;DHT22;6801;53.018;11.560;2022-11-23T04:18:32;3.20;83.80
13458;DHT22;6801;53.018;11.560;2022-11-23T04:21:01;3.10;83.80
13458;DHT22;6801;53.018;11.560;2022-11-23T04:23:28;3.10;83.80
13458;DHT22;6801;53.018;11.560;2022-11-23T04:25:56;3.20;83.70
13458;DHT22;6801;53.018;11.560;2022-11-23T04:28:23;3.20;83.70
13458;DHT22;6801;53.018;11.560;2022-11-23T04:30:51;3.10;83.80
13458;DHT22;6801;53.018;11.560;2022-11-23T04:33:18;3.20;83.70
13458;DHT22;6801;53.018;11.560;2022-11-23T04:35:46;3.20;83.80
13458;DHT22;6801;53.018;11.560;2022-11-23T04:38:15;3.20;83.80
13458;DHT22;6801;53.018;11.560;2022-11-23T04:40:42;3.20;83.90
13458;DHT22;6801;53.018;11.560;2022-11-23T04:43:09;3.20;83.90
13458;DHT22;6801;53.018;11.560;2022-11-23T04:45:38;3.10;83.90
13458;DHT22;6801;53.018;11.560;2022-11-23T04:48:11;3.20;83.90
13458;DHT22;6801;53.018;11.560;2022-11-23T04:50:38;3.20;83.70
13458;DHT22;6801;53.018;11.560;2022-11-23T04:53:09;3.30;83.80
13458;DHT22;6801;53.018;11.560;2022-11-23T04:55:42;3.20;83.70
13458;DHT22;6801;53.018;11.560;2022-11-23T04:58:10;3.20;83.80
13458;DHT22;6801;53.018;11.560;2022-11-23T05:00:38;3.20;83.80
13458;DHT22;6801;53.018;11.560;2022-11-23T05:03:05;3.20;83.80
13458;DHT22;6801;53.018;11.560;2022-11-23T05:05:36;3.20;83.80
13458;DHT22;6801;53.018;11.560;2022-11-23T05:08:05;3.20;83.70
13458;DHT22;6801;53.018;11.560;2022-11-23T05:10:51;3.20;83.70
13458;DHT22;6801;53.018;11.560;2022-11-23T05:13:18;3.20;83.80
13458;DHT22;6801;53.018;11.560;2022-11-23T05:15:48;3.20;83.90
13458;DHT22;6801;53.018;11.560;2022-11-23T05:18:20;3.20;83.90
13458;DHT22;6801;53.018;11.560;2022-11-23T05:20:48;3.20;83.90
13458;DHT22;6801;53.018;11.560;2022-11-23T05:23:15;3.20;83.90
13458;DHT22;6801;53.018;11.560;2022-11-23T05:25:44;3.20;83.90
13458;DHT22;6801;53.018;11.560;2022-11-23T05:28:17;3.20;83.90
13458;DHT22;6801;53.018;11.560;2022-11-23T05:30:44;3.20;83.90
13458;DHT22;6801;53.018;11.560;2022-11-23T05:33:12;3.20;83.90
13458;DHT22;6801;53.018;11.560;2022-11-23T05:35:39;3.30;84.00
13458;DHT22;6801;53.018;11.560;2022-11-23T05:38:07;3.20;83.80
13458;DHT22;6801;53.018;11.560;2022-11-23T05:40:34;3.20;83.90
13458;DHT22;6801;53.018;11.560;2022-11-23T05:43:02;3.30;83.90
13458;DHT22;6801;53.018;11.560;2022-11-23T05:45:31;3.20;84.00
13458;DHT22;6801;53.018;11.560;2022-11-23T05:47:58;3.30;83.90
13458;DHT22;6801;53.018;11.560;2022-11-23T05:50:37;3.30;83.90
13458;DHT22;6801;53.018;11.560;2022-11-23T05:53:32;3.30;83.80
13458;DHT22;6801;53.018;11.560;2022-11-23T05:56:11;3.30;83.80
13458;DHT22;6801;53.018;11.560;2022-11-23T05:58:54;3.20;83.80
13458;DHT22;6801;53.018;11.560;2022-11-23T06:01:22;3.30;83.80
13458;DHT22;6801;53.018;11.560;2022-11-23T06:03:51;3.30;83.80
13458;DHT22;6801;53.018;11.560;2022-11-23T06:06:18;3.30;83.90
13458;DHT22;6801;53.018;11.560;2022-11-23T06:08:45;3.30;83.90
13458;DHT22;6801;53.018;11.560;2022-11-23T06:11:14;3.30;83.90
13458;DHT22;6801;53.018;11.560;2022-11-23T06:13:41;3.30;83.80
13458;DHT22;6801;53.018;11.560;2022-11-23T06:16:08;3.30;83.80
13458;DHT22;6801;53.018;11.560;2022-11-23T06:18:48;3.30;83.80
13458;DHT22;6801;53.018;11.560;2022-11-23T06:21:15;3.30;83.80
13458;DHT22;6801;53.018;11.560;2022-11-23T06:23:43;3.30;83.80
13458;DHT22;6801;53.018;11.560;2022-11-23T06:26:10;3.30;83.90
13458;DHT22;6801;53.018;11.560;2022-11-23T06:28:37;3.30;83.90
13458;DHT22;6801;53.018;11.560;2022-11-23T06:31:08;3.30;83.80
13458;DHT22;6801;53.018;11.560;2022-11-23T06:33:36;3.40;83.90
13458;DHT22;6801;53.018;11.560;2022-11-23T06:36:05;3.40;83.90
13458;DHT22;6801;53.018;11.560;2022-11-23T06:38:40;3.30;83.80
13458;DHT22;6801;53.018;11.560;2022-11-23T06:41:12;3.40;83.90
13458;DHT22;6801;53.018;11.560;2022-11-23T06:43:39;3.30;83.80
13458;DHT22;6801;53.018;11.560;2022-11-23T06:46:06;3.30;83.80
13458;DHT22;6801;53.018;11.560;2022-11-23T06:48:38;3.30;83.90
13458;DHT22;6801;53.018;11.560;2022-11-23T06:51:07;3.30;84.00
13458;DHT22;6801;53.018;11.560;2022-11-23T06:53:36;3.30;84.00
13458;DHT22;6801;53.018;11.560;2022-11-23T06:56:06;3.30;84.00
13458;DHT22;6801;53.018;11.560;2022-11-23T06:58:34;3.30;84.10
13458;DHT22;6801;53.018;11.560;2022-11-23T07:01:06;3.30;84.00
13458;DHT22;6801;53.018;11.560;2022-11-23T07:03:46;3.30;84.00
13458;DHT22;6801;53.018;11.560;2022-11-23T07:06:25;3.30;84.00
13458;DHT22;6801;53.018;11.560;2022-11-23T07:08:55;3.40;83.90
13458;DHT22;6801;53.018;11.560;2022-11-23T07:11:33;3.40;83.90
13458;DHT22;6801;53.018;11.560;2022-11-23T07:14:00;3.40;83.90
13458;DHT22;6801;53.018;11.560;2022-11-23T07:16:29;3.40;84.00
13458;DHT22;6801;53.018;11.560;2022-11-23T07:18:57;3.40;84.00
13458;DHT22;6801;53.018;11.560;2022-11-23T07:21:26;3.40;84.10
13458;DHT22;6801;53.018;11.560;2022-11-23T07:23:53;3.40;84.00
13458;DHT22;6801;53.018;11.560;2022-11-23T07:26:20;3.50;84.00
13458;DHT22;6801;53.018;11.560;2022-11-23T07:28:48;3.50;84.00
13458;DHT22;6801;53.018;11.560;2022-11-23T07:31:15;3.50;83.90
13458;DHT22;6801;53.018;11.560;2022-11-23T07:33:43;3.50;83.90
13458;DHT22;6801;53.018;11.560;2022-11-23T07:36:11;3.50;83.90
13458;DHT22;6801;53.018;11.560;2022-11-23T07:38:49;3.50;83.80
13458;DHT22;6801;53.018;11.560;2022-11-23T07:41:18;3.50;83.80
13458;DHT22;6801;53.018;11.560;2022-11-23T07:43:56;3.50;83.90
13458;DHT22;6801;53.018;11.560;2022-11-23T07:46:23;3.50;83.70
13458;DHT22;6801;53.018;11.560;2022-11-23T07:48:50;3.50;83.90
13458;DHT22;6801;53.018;11.560;2022-11-23T07:51:19;3.50;83.90
13458;DHT22;6801;53.018;11.560;2022-11-23T07:53:46;3.50;83.90
13458;DHT22;6801;53.018;11.560;2022-11-23T07:56:14;3.50;84.00
13458;DHT22;6801;53.018;11.560;2022-11-23T07:58:41;3.60;84.20
13458;DHT22;6801;53.018;11.560;2022-11-23T08:01:08;3.60;84.20
13458;DHT22;6801;53.018;11.560;2022-11-23T08:03:36;3.50;84.20
13458;DHT22;6801;53.018;11.560;2022-11-23T08:06:08;3.60;84.20
13458;DHT22;6801;53.018;11.560;2022-11-23T08:08:35;3.60;84.10
13458;DHT22;6801;53.018;11.560;2022-11-23T08:11:04;3.60;84.20
13458;DHT22;6801;53.018;11.560;2022-11-23T08:13:32;3.60;84.10
13458;DHT22;6801;53.018;11.560;2022-11-23T08:16:00;3.70;84.10
13458;DHT22;6801;53.018;11.560;2022-11-23T08:18:27;3.70;84.00
13458;DHT22;6801;53.018;11.560;2022-11-23T08:20:58;3.70;83.90
13458;DHT22;6801;53.018;11.560;2022-11-23T08:23:26;3.60;83.90
13458;DHT22;6801;53.018;11.560;2022-11-23T08:25:53;3.70;84.10
13458;DHT22;6801;53.018;11.560;2022-11-23T08:28:20;3.70;84.30
13458;DHT22;6801;53.018;11.560;2022-11-23T08:30:48;3.70;84.10
13458;DHT22;6801;53.018;11.560;2022-11-23T08:33:15;3.70;84.20
13458;DHT22;6801;53.018;11.560;2022-11-23T08:35:42;3.70;84.20
13458;DHT22;6801;53.018;11.560;2022-11-23T08:38:10;3.80;84.20
13458;DHT22;6801;53.018;11.560;2022-11-23T08:40:37;3.80;84.10
13458;DHT22;6801;53.018;11.560;2022-11-23T08:43:05;3.80;84.10
13458;DHT22;6801;53.018;11.560;2022-11-23T08:45:32;3.80;84.10
13458;DHT22;6801;53.018;11.560;2022-11-23T08:48:01;3.80;84.00
13458;DHT22;6801;53.018;11.560;2022-11-23T08:50:29;3.80;84.00
13458;DHT22;6801;53.018;11.560;2022-11-23T08:52:57;3.80;84.10
13458;DHT22;6801;53.018;11.560;2022-11-23T08:55:25;3.80;83.90
13458;DHT22;6801;53.018;11.560;2022-11-23T08:57:54;3.90;83.90
13458;DHT22;6801;53.018;11.560;2022-11-23T09:00:21;3.90;84.00
13458;DHT22;6801;53.018;11.560;2022-11-23T09:02:48;3.90;84.00
13458;DHT22;6801;53.018;11.560;2022-11-23T09:05:17;3.90;84.10
13458;DHT22;6801;53.018;11.560;2022-11-23T09:07:44;3.90;84.10
13458;DHT22;6801;53.018;11.560;2022-11-23T09:10:11;4.00;84.00
13458;DHT22;6801;53.018;11.560;2022-11-23T09:12:38;4.00;84.10
13458;DHT22;6801;53.018;11.560;2022-11-23T09:15:05;4.00;84.10
13458;DHT22;6801;53.018;11.560;2022-11-23T09:17:33;4.00;84.00
13458;DHT22;6801;53.018;11.560;2022-11-23T09:20:00;4.00;83.80
13458;DHT22;6801;53.018;11.560;2022-11-23T09:22:28;4.10;83.80
13458;DHT22;6801;53.018;11.560;2022-11-23T09:24:55;4.10;84.00
13458;DHT22;6801;53.018;11.560;2022-11-23T09:27:22;4.00;84.00
13458;DHT22;6801;53.018;11.560;2022-11-23T09:29:50;4.10;84.00
13458;DHT22;6801;53.018;11.560;2022-11-23T09:32:17;4.10;84.00
13458;DHT22;6801;53.018;11.560;2022-11-23T09:34:44;4.10;84.10
13458;DHT22;6801;53.018;11.560;2022-11-23T09:37:11;4.00;84.10
13458;DHT22;6801;53.018;11.560;2022-11-23T09:39:39;4.10;84.10
13458;DHT22;6801;53.018;11.560;2022-11-23T09:42:29;4.10;83.90
13458;DHT22;6801;53.018;11.560;2022-11-23T09:45:10;4.10;83.90
13458;DHT22;6801;53.018;11.560;2022-11-23T09:50:47;4.20;83.90
13458;DHT22;6801;53.018;11.560;2022-11-23T09:53:20;4.20;83.70
13458;DHT22;6801;53.018;11.560;2022-11-23T09:55:51;4.20;83.90
13458;DHT22;6801;53.018;11.560;2022-11-23T09:58:22;4.20;83.90
13458;DHT22;6801;53.018;11.560;2022-11-23T10:00:52;4.30;83.80
13458;DHT22;6801;53.018;11.560;2022-11-23T10:03:21;4.30;83.90
13458;DHT22;6801;53.018;11.560;2022-11-23T10:05:56;4.30;83.90
13458;DHT22;6801;53.018;11.560;2022-11-23T10:08:35;4.30;83.90
13458;DHT22;6801;53.018;11.560;2022-11-23T10:11:22;4.30;83.80
13458;DHT22;6801;53.018;11.560;2022-11-23T10:13:56;4.40;83.90
13458;DHT22;6801;53.018;11.560;2022-11-23T10:16:34;4.40;83.80
13458;DHT22;6801;53.018;11.560;2022-11-23T10:19:08;4.40;83.80
13458;DHT22;6801;53.018;11.560;2022-11-23T10:21:44;4.50;83.80
13458;DHT22;6801;53.018;11.560;2022-11-23T10:24:18;4.50;83.90
13458;DHT22;6801;53.018;11.560;2022-11-23T10:26:49;4.50;83.90
13458;DHT22;6801;53.018;11.560;2022-11-23T10:29:21;4.50;83.80
13458;DHT22;6801;53.018;11.560;2022-11-23T10:31:51;4.50;83.80
13458;DHT22;6801;53.018;11.560;2022-11-23T10:34:25;4.50;83.90
13458;DHT22;6801;53.018;11.560;2022-11-23T10:36:55;4.50;84.10
13458;DHT22;6801;53.018;11.560;2022-11-23T10:39:24;4.50;84.10
13458;DHT22;6801;53.018;11.560;2022-11-23T10:41:53;4.50;84.10
13458;DHT22;6801;53.018;11.560;2022-11-23T10:44:28;4.60;84.30
13458;DHT22;6801;53.018;11.560;2022-11-23T10:46:56;4.60;84.30
13458;DHT22;6801;53.018;11.560;2022-11-23T10:49:26;4.70;84.20
13458;DHT22;6801;53.018;11.560;2022-11-23T10:51:56;4.80;83.80
13458;DHT22;6801;53.018;11.560;2022-11-23T10:54:29;4.80;83.80
13458;DHT22;6801;53.018;11.560;2022-11-23T10:57:00;4.80;83.90
13458;DHT22;6801;53.018;11.560;2022-11-23T10:59:31;4.80;84.00
13458;DHT22;6801;53.018;11.560;2022-11-23T11:01:59;4.80;84.10
13458;DHT22;6801;53.018;11.560;2022-11-23T11:04:26;4.80;84.20
13458;DHT22;6801;53.018;11.560;2022-11-23T11:07:09;4.80;84.10
13458;DHT22;6801;53.018;11.560;2022-11-23T11:09:37;4.80;84.20
13458;DHT22;6801;53.018;11.560;2022-11-23T11:12:14;4.90;84.20
13458;DHT22;6801;53.018;11.560;2022-11-23T11:14:54;4.90;84.30
13458;DHT22;6801;53.018;11.560;2022-11-23T11:17:25;4.90;84.40
13458;DHT22;6801;53.018;11.560;2022-11-23T11:19:52;4.90;84.40
13458;DHT22;6801;53.018;11.560;2022-11-23T11:22:32;5.00;84.40
13458;DHT22;6801;53.018;11.560;2022-11-23T11:25:02;5.00;84.40
13458;DHT22;6801;53.018;11.560;2022-11-23T11:27:31;5.00;84.50
13458;DHT22;6801;53.018;11.560;2022-11-23T11:30:04;5.10;84.60
13458;DHT22;6801;53.018;11.560;2022-11-23T11:32:40;5.10;84.60
13458;DHT22;6801;53.018;11.560;2022-11-23T11:35:12;5.20;84.40
13458;DHT22;6801;53.018;11.560;2022-11-23T11:37:42;5.30;84.60
13458;DHT22;6801;53.018;11.560;2022-11-23T11:40:15;5.30;84.80
13458;DHT22;6801;53.018;11.560;2022-11-23T11:42:49;5.30;84.80
13458;DHT22;6801;53.018;11.560;2022-11-23T11:45:23;5.40;84.60
13458;DHT22;6801;53.018;11.560;2022-11-23T11:47:55;5.40;84.70
13458;DHT22;6801;53.018;11.560;2022-11-23T11:50:26;5.50;84.60
13458;DHT22;6801;53.018;11.560;2022-11-23T11:53:00;5.50;84.60
13458;DHT22;6801;53.018;11.560;2022-11-23T11:55:32;5.60;84.60
13458;DHT22;6801;53.018;11.560;2022-11-23T11:58:09;5.60;84.40
13458;DHT22;6801;53.018;11.560;2022-11-23T12:00:37;5.80;84.20
13458;DHT22;6801;53.018;11.560;2022-11-23T12:03:13;5.70;84.20
13458;DHT22;6801;53.018;11.560;2022-11-23T12:05:47;5.80;84.30
13458;DHT22;6801;53.018;11.560;2022-11-23T12:08:18;5.80;84.10
13458;DHT22;6801;53.018;11.560;2022-11-23T12:10:49;5.90;84.20
13458;DHT22;6801;53.018;11.560;2022-11-23T12:13:22;5.90;84.20
13458;DHT22;6801;53.018;11.560;2022-11-23T12:15:54;5.90;84.20
13458;DHT22;6801;53.018;11.560;2022-11-23T12:18:34;5.90;84.20
13458;DHT22;6801;53.018;11.560;2022-11-23T12:21:18;5.90;84.40
13458;DHT22;6801;53.018;11.560;2022-11-23T12:23:55;6.00;84.30
13458;DHT22;6801;53.018;11.560;2022-11-23T12:26:28;6.10;84.10
13458;DHT22;6801;53.018;11.560;2022-11-23T12:29:12;6.10;83.80
13458;DHT22;6801;53.018;11.560;2022-11-23T12:31:46;6.10;84.10
13458;DHT22;6801;53.018;11.560;2022-11-23T12:34:34;6.00;84.10
13458;DHT22;6801;53.018;11.560;2022-11-23T12:37:21;6.10;84.20
13458;DHT22;6801;53.018;11.560;2022-11-23T12:42:47;6.20;84.40
13458;DHT22;6801;53.018;11.560;2022-11-23T12:45:33;6.20;84.00
13458;DHT22;6801;53.018;11.560;2022-11-23T12:48:17;6.20;84.10
13458;DHT22;6801;53.018;11.560;2022-11-23T12:50:51;6.20;84.20
13458;DHT22;6801;53.018;11.560;2022-11-23T12:53:33;6.20;84.10
13458;DHT22;6801;53.018;11.560;2022-11-23T12:56:10;6.20;84.20
13458;DHT22;6801;53.018;11.560;2022-11-23T12:58:41;6.30;84.20
13458;DHT22;6801;53.018;11.560;2022-11-23T13:01:15;6.30;84.30
13458;DHT22;6801;53.018;11.560;2022-11-23T13:04:12;6.30;84.10
13458;DHT22;6801;53.018;11.560;2022-11-23T13:07:03;6.40;84.20
13458;DHT22;6801;53.018;11.560;2022-11-23T13:12:47;6.40;83.90
13458;DHT22;6801;53.018;11.560;2022-11-23T13:15:30;6.40;83.80
13458;DHT22;6801;53.018;11.560;2022-11-23T13:18:08;6.40;83.80
13458;DHT22;6801;53.018;11.560;2022-11-23T13:20:56;6.40;84.00
13458;DHT22;6801;53.018;11.560;2022-11-23T13:23:27;6.40;84.10
13458;DHT22;6801;53.018;11.560;2022-11-23T13:26:13;6.40;84.10
13458;DHT22;6801;53.018;11.560;2022-11-23T13:28:41;6.40;84.10
13458;DHT22;6801;53.018;11.560;2022-11-23T13:31:23;6.40;84.10
13458;DHT22;6801;53.018;11.560;2022-11-23T13:33:53;6.40;84.00
13458;DHT22;6801;53.018;11.560;2022-11-23T13:36:41;6.40;84.00
13458;DHT22;6801;53.018;11.560;2022-11-23T13:42:25;6.40;84.10
13458;DHT22;6801;53.018;11.560;2022-11-23T13:48:19;6.40;84.10
13458;DHT22;6801;53.018;11.560;2022-11-23T13:50:58;6.50;84.10
13458;DHT22;6801;53.018;11.560;2022-11-23T13:53:28;6.40;84.10
13458;DHT22;6801;53.018;11.560;2022-11-23T13:55:58;6.40;84.20
13458;DHT22;6801;53.018;11.560;2022-11-23T13:58:39;6.40;84.20
13458;DHT22;6801;53.018;11.560;2022-11-23T14:01:06;6.40;84.30
13458;DHT22;6801;53.018;11.560;2022-11-23T14:03:46;6.40;84.20
13458;DHT22;6801;53.018;11.560;2022-11-23T14:06:28;6.40;84.10
13458;DHT22;6801;53.018;11.560;2022-11-23T14:09:04;6.40;84.20
13458;DHT22;6801;53.018;11.560;2022-11-23T14:11:36;6.50;84.20
13458;DHT22;6801;53.018;11.560;2022-11-23T14:14:15;6.40;84.10
13458;DHT22;6801;53.018;11.560;2022-11-23T14:22:56;6.40;84.00
13458;DHT22;6801;53.018;11.560;2022-11-23T14:25:37;6.50;84.00
13458;DHT22;6801;53.018;11.560;2022-11-23T14:28:17;6.40;84.10
13458;DHT22;6801;53.018;11.560;2022-11-23T14:30:56;6.40;84.20
13458;DHT22;6801;53.018;11.560;2022-11-23T14:33:31;6.40;84.20
13458;DHT22;6801;53.018;11.560;2022-11-23T14:36:12;6.40;84.20
13458;DHT22;6801;53.018;11.560;2022-11-23T14:41:55;6.40;84.00
13458;DHT22;6801;53.018;11.560;2022-11-23T14:44:25;6.40;83.80
13458;DHT22;6801;53.018;11.560;2022-11-23T14:46:59;6.40;83.50
13458;DHT22;6801;53.018;11.560;2022-11-23T14:49:27;6.50;83.50
13458;DHT22;6801;53.018;11.560;2022-11-23T14:51:55;6.40;83.70
13458;DHT22;6801;53.018;11.560;2022-11-23T14:54:22;6.40;83.70
13458;DHT22;6801;53.018;11.560;2022-11-23T14:56:52;6.40;83.90
13458;DHT22;6801;53.018;11.560;2022-11-23T14:59:24;6.40;83.80
13458;DHT22;6801;53.018;11.560;2022-11-23T15:01:56;6.40;83.80
13458;DHT22;6801;53.018;11.560;2022-11-23T15:04:25;6.50;83.90
13458;DHT22;6801;53.018;11.560;2022-11-23T15:06:57;6.30;83.80
13458;DHT22;6801;53.018;11.560;2022-11-23T15:09:38;6.40;83.80
13458;DHT22;6801;53.018;11.560;2022-11-23T15:12:20;6.40;83.80
13458;DHT22;6801;53.018;11.560;2022-11-23T15:14:47;6.40;83.70
13458;DHT22;6801;53.018;11.560;2022-11-23T15:17:16;6.40;83.60
13458;DHT22;6801;53.018;11.560;2022-11-23T15:19:52;6.40;83.60
13458;DHT22;6801;53.018;11.560;2022-11-23T15:22:19;6.40;83.50
13458;DHT22;6801;53.018;11.560;2022-11-23T15:24:46;6.40;83.60
13458;DHT22;6801;53.018;11.560;2022-11-23T15:27:21;6.40;83.50
13458;DHT22;6801;53.018;11.560;2022-11-23T15:29:52;6.40;83.40
13458;DHT22;6801;53.018;11.560;2022-11-23T15:32:24;6.40;83.30
13458;DHT22;6801;53.018;11.560;2022-11-23T15:34:53;6.40;83.40
13458;DHT22;6801;53.018;11.560;2022-11-23T15:37:22;6.50;83.20
13458;DHT22;6801;53.018;11.560;2022-11-23T15:39:50;6.40;83.20
13458;DHT22;6801;53.018;11.560;2022-11-23T15:42:20;6.40;83.30
13458;DHT22;6801;53.018;11.560;2022-11-23T15:44:48;6.30;83.40
13458;DHT22;6801;53.018;11.560;2022-11-23T15:47:18;6.30;83.10
13458;DHT22;6801;53.018;11.560;2022-11-23T15:49:48;6.30;83.30
13458;DHT22;6801;53.018;11.560;2022-11-23T15:52:17;6.30;83.50
13458;DHT22;6801;53.018;11.560;2022-11-23T15:54:45;6.20;83.50
13458;DHT22;6801;53.018;11.560;2022-11-23T15:57:17;6.20;83.40
13458;DHT22;6801;53.018;11.560;2022-11-23T15:59:48;6.10;83.40
13458;DHT22;6801;53.018;11.560;2022-11-23T16:02:18;6.10;83.50
13458;DHT22;6801;53.018;11.560;2022-11-23T16:04:47;6.00;83.50
13458;DHT22;6801;53.018;11.560;2022-11-23T16:07:16;6.00;83.40
13458;DHT22;6801;53.018;11.560;2022-11-23T16:09:45;6.00;83.50
13458;DHT22;6801;53.018;11.560;2022-11-23T16:12:22;6.00;83.40
13458;DHT22;6801;53.018;11.560;2022-11-23T16:14:52;5.90;83.40
13458;DHT22;6801;53.018;11.560;2022-11-23T16:17:20;5.90;83.40
13458;DHT22;6801;53.018;11.560;2022-11-23T16:19:49;5.90;83.40
13458;DHT22;6801;53.018;11.560;2022-11-23T16:22:29;5.80;83.40
13458;DHT22;6801;53.018;11.560;2022-11-23T16:25:02;5.80;83.30
13458;DHT22;6801;53.018;11.560;2022-11-23T16:27:29;5.80;83.30
13458;DHT22;6801;53.018;11.560;2022-11-23T16:29:58;5.80;83.30
13458;DHT22;6801;53.018;11.560;2022-11-23T16:32:28;5.70;83.30
13458;DHT22;6801;53.018;11.560;2022-11-23T16:34:58;5.70;83.30